Rosenberg's Hourly Summary for Monday, April 17, 2017
Hour Temp
(f)
RH
(%)
Solar Rad.
(MJ/m2)
Rainfall
(in)
Wind
(mph)
4/17/2017 12:00 AM 64 92 0 0 0.57
4/17/2017 1:00 AM 63 93 0 0 0.57
4/17/2017 2:00 AM 62 94 0 0 0.57
4/17/2017 3:00 AM 61 94 0 0 0.57
4/17/2017 4:00 AM 60 95 0.01 0 0.57
4/17/2017 5:00 AM 60 95 0.01 0 1.4
4/17/2017 6:00 AM 60 95 0.25 0 1.02
4/17/2017 7:00 AM 61 95 0.76 0 1.89
4/17/2017 8:00 AM 65 85 1.05 0 4.91
4/17/2017 9:00 AM 71 72 1.94 0 7.88
4/17/2017 10:00 AM 75 64 2.18 0 8.09
4/17/2017 11:00 AM 76 61 2.02 0 8.78
4/17/2017 12:00 PM 77 60 1.69 0 9.76
4/17/2017 1:00 PM 77 60 1.3 0 9.37
4/17/2017 2:00 PM 77 61 0.7 0 7.45
4/17/2017 3:00 PM 68 78 0.09 0.03 7.85
4/17/2017 4:00 PM 63 91 0.08 0.08 4.73
4/17/2017 5:00 PM 62 92 0.18 0.02 2.45
4/17/2017 6:00 PM 62 93 0.07 0 2.68
4/17/2017 7:00 PM 62 93 0.01 0.01 0.95
4/17/2017 8:00 PM 62 93 0.01 0.01 1.46
4/17/2017 9:00 PM 62 93 0 0 0.78
4/17/2017 10:00 PM 61 93 0.01 0.01 0.7
4/17/2017 11:00 PM 61 94 0 0.26 3.62
Data Summary 65 84 12.36 0.42 3.69